Time;durP1;ratioP1;P1;durP2;ratioP2;P2;SDS_P1;SDS_P2;PMS_P1;PMS_P2;Temp;Humidity;BMP_temperature;BMP_pressure;BME280_temperature;BME280_humidity;BME280_pressure;Samples;Min_cycle;Max_cycle;Signal;HPM_P1;HPM_P2
2021/05/31 00:01:32;;;;;;;;;;;18.40;60.40;;;;;;4261851;33;46112;-77
2021/05/31 00:04:02;;;;;;;;;;;18.40;60.50;;;;;;4288107;33;20044;-77
2021/05/31 00:06:48;;;;;;;;;;;18.40;60.60;;;;;;4286683;33;44025;-76
2021/05/31 00:09:15;;;;;;;;;;;18.40;60.70;;;;;;4275673;33;20448;-76
2021/05/31 00:11:45;;;;;;;;;;;18.40;60.80;;;;;;4274206;33;43742;-77
2021/05/31 00:14:17;;;;;;;;;;;18.40;60.90;;;;;;4274623;33;43521;-77
2021/05/31 00:16:47;;;;;;;;;;;18.30;60.90;;;;;;4286415;33;43458;-77
2021/05/31 00:19:14;;;;;;;;;;;18.30;61.00;;;;;;4273763;33;44320;-76
2021/05/31 00:21:46;;;;;;;;;;;18.30;61.00;;;;;;4273460;33;42201;-77
2021/05/31 00:24:16;;;;;;;;;;;18.30;61.10;;;;;;4289552;33;41884;-76
2021/05/31 00:26:46;;;;;;;;;;;18.30;61.20;;;;;;4264545;33;43592;-77
2021/05/31 00:29:16;;;;;;;;;;;18.30;61.30;;;;;;4289577;33;44655;-77
2021/05/31 00:31:48;;;;;;;;;;;18.20;61.20;;;;;;4276115;33;43711;-77
2021/05/31 00:34:15;;;;;;;;;;;18.30;61.30;;;;;;4264307;33;45338;-76
2021/05/31 00:36:44;;;;;;;;;;;18.20;61.50;;;;;;4276121;33;44490;-77
2021/05/31 00:39:15;;;;;;;;;;;18.20;61.50;;;;;;4276554;33;42917;-77
2021/05/31 00:41:45;;;;;;;;;;;18.20;61.70;;;;;;4264167;33;43339;-76
2021/05/31 00:44:15;;;;;;;;;;;18.20;61.90;;;;;;4290605;33;20013;-77
2021/05/31 00:46:48;;;;;;;;;;;18.10;61.80;;;;;;4277296;33;20072;-77
2021/05/31 00:49:23;;;;;;;;;;;18.10;61.90;;;;;;4276632;33;43617;-77
2021/05/31 00:51:50;;;;;;;;;;;18.10;62.10;;;;;;4276378;33;43669;-77
2021/05/31 00:54:20;;;;;;;;;;;18.10;62.30;;;;;;4289689;33;29242;-77
2021/05/31 00:56:48;;;;;;;;;;;18.10;62.30;;;;;;4276234;33;41297;-76
2021/05/31 00:59:17;;;;;;;;;;;18.00;62.20;;;;;;4288699;33;43335;-76
2021/05/31 01:01:46;;;;;;;;;;;18.00;62.40;;;;;;4289220;33;32784;-77
2021/05/31 01:04:18;;;;;;;;;;;18.00;62.40;;;;;;4276341;33;36471;-77
2021/05/31 01:06:53;;;;;;;;;;;18.00;62.40;;;;;;4289325;33;44315;-77
2021/05/31 01:09:32;;;;;;;;;;;18.00;62.50;;;;;;4276048;33;43365;-77
2021/05/31 01:11:59;;;;;;;;;;;18.00;62.60;;;;;;4275874;33;43475;-77
2021/05/31 01:14:39;;;;;;;;;;;17.90;62.70;;;;;;4277382;33;20018;-77
2021/05/31 01:17:14;;;;;;;;;;;17.90;62.60;;;;;;4276607;33;20022;-77
2021/05/31 01:19:52;;;;;;;;;;;17.90;62.70;;;;;;4265231;33;20012;-77
2021/05/31 01:22:25;;;;;;;;;;;17.90;62.80;;;;;;4277102;33;20071;-78
2021/05/31 01:25:04;;;;;;;;;;;17.90;62.80;;;;;;4277187;33;20006;-78
2021/05/31 01:27:49;;;;;;;;;;;17.90;62.80;;;;;;4276986;33;20092;-77
2021/05/31 01:30:25;;;;;;;;;;;17.80;62.80;;;;;;4276892;33;20638;-77
2021/05/31 01:32:56;;;;;;;;;;;17.80;62.70;;;;;;4290015;33;20511;-77
2021/05/31 01:35:27;;;;;;;;;;;17.80;62.80;;;;;;4276129;33;20021;-77
2021/05/31 01:37:58;;;;;;;;;;;17.80;63.00;;;;;;4265106;33;20008;-77
2021/05/31 01:40:28;;;;;;;;;;;17.80;62.90;;;;;;4277056;33;20011;-77
2021/05/31 01:42:57;;;;;;;;;;;17.70;62.90;;;;;;4276460;33;20009;-78
2021/05/31 01:45:27;;;;;;;;;;;17.70;63.00;;;;;;4258728;33;20019;-77
2021/05/31 01:47:58;;;;;;;;;;;17.70;63.10;;;;;;4275211;33;43633;-77
2021/05/31 01:50:27;;;;;;;;;;;17.70;63.20;;;;;;4275174;33;40044;-77
2021/05/31 01:53:00;;;;;;;;;;;17.70;63.30;;;;;;4276176;33;31828;-77
2021/05/31 01:55:35;;;;;;;;;;;17.70;63.40;;;;;;4275859;33;44205;-77
2021/05/31 01:58:05;;;;;;;;;;;17.60;64.20;;;;;;4275302;33;42783;-77
2021/05/31 02:00:35;;;;;;;;;;;17.60;63.50;;;;;;4275290;33;33721;-77
2021/05/31 02:03:05;;;;;;;;;;;17.60;63.40;;;;;;4275691;33;36731;-76
2021/05/31 02:05:39;;;;;;;;;;;17.60;63.40;;;;;;4275766;33;44663;-77
2021/05/31 02:08:11;;;;;;;;;;;17.60;63.40;;;;;;4275027;33;35009;-76
2021/05/31 02:10:44;;;;;;;;;;;17.60;63.40;;;;;;4275074;33;43770;-75
2021/05/31 02:13:17;;;;;;;;;;;17.60;63.50;;;;;;4275379;33;34284;-76
2021/05/31 02:15:57;;;;;;;;;;;17.50;63.50;;;;;;4263654;33;35474;-76
2021/05/31 02:18:29;;;;;;;;;;;17.50;64.30;;;;;;4275006;33;45613;-77
2021/05/31 02:21:16;;;;;;;;;;;17.50;63.60;;;;;;4288496;33;37281;-76
2021/05/31 02:23:52;;;;;;;;;;;17.50;63.60;;;;;;4274772;33;44373;-77
2021/05/31 02:26:25;;;;;;;;;;;17.50;63.60;;;;;;4263127;33;42049;-77
2021/05/31 02:28:52;;;;;;;;;;;17.50;63.70;;;;;;4262796;33;46213;-77
2021/05/31 02:31:26;;;;;;;;;;;17.40;63.60;;;;;;4263520;33;29277;-77
2021/05/31 02:34:02;;;;;;;;;;;17.40;63.70;;;;;;4263028;33;43024;-76
2021/05/31 02:36:34;;;;;;;;;;;17.40;63.80;;;;;;4263287;33;36912;-76
2021/05/31 02:39:04;;;;;;;;;;;17.40;63.70;;;;;;4275419;33;37935;-77
2021/05/31 02:41:37;;;;;;;;;;;17.40;63.70;;;;;;4274679;33;43272;-77
2021/05/31 02:44:09;;;;;;;;;;;17.30;63.70;;;;;;4288688;33;20018;-77
2021/05/31 02:46:42;;;;;;;;;;;17.30;63.80;;;;;;4287615;33;37180;-76
2021/05/31 02:49:15;;;;;;;;;;;17.30;63.80;;;;;;4287385;33;35144;-76
2021/05/31 02:51:45;;;;;;;;;;;17.30;63.80;;;;;;4288191;33;26722;-76
2021/05/31 02:54:17;;;;;;;;;;;17.30;63.80;;;;;;4274527;33;39967;-77
2021/05/31 02:56:49;;;;;;;;;;;17.30;64.00;;;;;;4274610;33;44061;-77
2021/05/31 02:59:22;;;;;;;;;;;17.30;64.00;;;;;;4287749;33;30749;-77
2021/05/31 03:01:52;;;;;;;;;;;17.20;63.90;;;;;;4287318;33;44178;-77
2021/05/31 03:04:25;;;;;;;;;;;17.20;64.00;;;;;;4274489;33;44653;-76
2021/05/31 03:06:53;;;;;;;;;;;17.20;64.10;;;;;;4274505;33;31998;-76
2021/05/31 03:09:27;;;;;;;;;;;17.20;64.20;;;;;;4262378;33;43432;-76
2021/05/31 03:12:02;;;;;;;;;;;17.20;64.20;;;;;;4274476;33;38517;-76
2021/05/31 03:14:32;;;;;;;;;;;17.20;64.20;;;;;;4287303;33;43674;-76
2021/05/31 03:16:59;;;;;;;;;;;17.10;64.20;;;;;;4274561;33;39042;-76
2021/05/31 03:19:31;;;;;;;;;;;17.20;64.30;;;;;;4275592;33;20066;-76
2021/05/31 03:22:04;;;;;;;;;;;17.10;64.30;;;;;;4287188;33;37153;-77
2021/05/31 03:24:34;;;;;;;;;;;17.10;64.30;;;;;;4287472;33;30904;-76
2021/05/31 03:27:02;;;;;;;;;;;17.10;64.30;;;;;;4274646;33;33062;-76
2021/05/31 03:29:30;;;;;;;;;;;17.10;64.40;;;;;;4275242;33;20091;-76
2021/05/31 03:31:57;;;;;;;;;;;17.00;64.30;;;;;;4262027;33;43272;-76
2021/05/31 03:34:24;;;;;;;;;;;17.00;64.40;;;;;;4262023;33;42064;-76
2021/05/31 03:36:56;;;;;;;;;;;17.00;64.50;;;;;;4273533;33;45838;-76
2021/05/31 03:39:26;;;;;;;;;;;17.00;64.40;;;;;;4274412;33;39427;-76
2021/05/31 03:41:56;;;;;;;;;;;17.00;64.50;;;;;;4273974;33;42145;-75
2021/05/31 03:44:23;;;;;;;;;;;17.00;64.60;;;;;;4268238;33;43013;-76
2021/05/31 03:46:52;;;;;;;;;;;16.90;64.60;;;;;;4287057;33;43673;-75
2021/05/31 03:49:20;;;;;;;;;;;16.90;64.70;;;;;;4273872;33;38025;-76
2021/05/31 03:51:52;;;;;;;;;;;16.90;64.70;;;;;;4262332;33;33007;-76
2021/05/31 03:54:22;;;;;;;;;;;16.90;64.80;;;;;;4273923;33;46771;-76
2021/05/31 03:56:52;;;;;;;;;;;16.90;64.80;;;;;;4273853;33;37408;-76
2021/05/31 03:59:23;;;;;;;;;;;16.90;64.90;;;;;;4277377;33;44692;-77
2021/05/31 04:01:51;;;;;;;;;;;16.90;65.70;;;;;;4276261;33;44586;-77
2021/05/31 04:04:21;;;;;;;;;;;16.80;65.00;;;;;;4276456;33;45489;-77
2021/05/31 04:11:33;;;;;;;;;;;16.80;65.10;;;;;;4290079;33;36945;-77
2021/05/31 04:12:21;;;;;;;;;;;16.80;65.40;;;;;;4290722;33;20372;-77
2021/05/31 04:14:51;;;;;;;;;;;16.80;65.30;;;;;;4290381;33;20486;-77
2021/05/31 04:17:24;;;;;;;;;;;16.80;65.50;;;;;;4265099;33;46736;-77
2021/05/31 04:19:51;;;;;;;;;;;16.80;65.50;;;;;;4277120;33;32290;-77
2021/05/31 04:22:24;;;;;;;;;;;16.70;65.50;;;;;;4266412;33;20432;-77
2021/05/31 04:24:54;;;;;;;;;;;16.70;65.70;;;;;;4276690;33;43208;-76
2021/05/31 04:27:21;;;;;;;;;;;16.70;65.80;;;;;;4276379;33;43326;-76
2021/05/31 04:29:50;;;;;;;;;;;16.70;65.90;;;;;;4277564;33;20048;-76
2021/05/31 04:32:20;;;;;;;;;;;16.70;66.00;;;;;;4277765;33;20028;-77
2021/05/31 04:34:49;;;;;;;;;;;16.70;66.10;;;;;;4264715;33;44661;-77
2021/05/31 04:37:19;;;;;;;;;;;16.70;66.20;;;;;;4264836;33;32993;-77
2021/05/31 04:39:46;;;;;;;;;;;16.70;66.40;;;;;;4264433;33;45051;-77
2021/05/31 04:42:16;;;;;;;;;;;16.70;66.40;;;;;;4264706;33;43371;-76
2021/05/31 04:44:45;;;;;;;;;;;16.70;66.50;;;;;;4276085;33;44842;-77
2021/05/31 04:47:15;;;;;;;;;;;16.70;66.50;;;;;;4276125;33;43371;-77
2021/05/31 04:49:42;;;;;;;;;;;16.70;66.50;;;;;;4276420;33;26931;-77
2021/05/31 04:52:13;;;;;;;;;;;16.70;66.60;;;;;;4289887;33;35525;-77
2021/05/31 04:54:43;;;;;;;;;;;16.70;66.50;;;;;;4289856;33;27251;-77
2021/05/31 04:57:13;;;;;;;;;;;16.70;66.50;;;;;;4264712;33;21553;-77
2021/05/31 04:59:43;;;;;;;;;;;16.70;66.70;;;;;;4265368;33;20328;-77
2021/05/31 05:02:11;;;;;;;;;;;16.70;66.90;;;;;;4288535;33;42150;-77
2021/05/31 05:04:38;;;;;;;;;;;16.60;66.90;;;;;;4290324;33;20066;-77
2021/05/31 05:07:13;;;;;;;;;;;16.60;66.80;;;;;;4264660;33;23495;-76
2021/05/31 05:09:40;;;;;;;;;;;16.60;67.00;;;;;;4275930;33;45890;-76
2021/05/31 05:12:10;;;;;;;;;;;16.60;67.00;;;;;;4289455;33;20017;-78
2021/05/31 05:14:42;;;;;;;;;;;16.60;67.20;;;;;;4288581;33;42635;-76
2021/05/31 05:17:10;;;;;;;;;;;16.60;67.20;;;;;;4276162;33;43387;-77
2021/05/31 05:19:40;;;;;;;;;;;16.60;67.40;;;;;;4276445;33;41598;-77
2021/05/31 05:22:09;;;;;;;;;;;16.60;67.30;;;;;;4288800;33;43640;-77
2021/05/31 05:24:36;;;;;;;;;;;16.60;67.50;;;;;;4275151;33;41994;-78
2021/05/31 05:27:06;;;;;;;;;;;16.60;67.60;;;;;;4275313;33;44334;-76
2021/05/31 05:29:34;;;;;;;;;;;16.60;67.60;;;;;;4276824;33;20018;-76
2021/05/31 05:32:01;;;;;;;;;;;16.60;67.80;;;;;;4263941;33;43940;-76
2021/05/31 05:34:34;;;;;;;;;;;16.60;67.70;;;;;;4275170;33;44000;-77
2021/05/31 05:37:06;;;;;;;;;;;16.60;67.80;;;;;;4275697;33;39942;-76
2021/05/31 05:39:56;;;;;;;;;;;16.60;68.00;;;;;;4289763;33;20007;-76
2021/05/31 05:47:46;;;;;;;;;;;16.60;68.10;;;;;;4289501;33;20007;-77
2021/05/31 05:50:20;;;;;;;;;;;16.60;68.10;;;;;;4289849;33;20020;-77
2021/05/31 05:52:47;;;;;;;;;;;16.60;68.20;;;;;;4276459;33;20494;-76
2021/05/31 05:55:21;;;;;;;;;;;16.60;68.10;;;;;;4276548;33;20033;-77
2021/05/31 05:57:48;;;;;;;;;;;16.60;68.20;;;;;;4275530;33;44664;-77
2021/05/31 06:00:18;;;;;;;;;;;16.60;68.20;;;;;;4288507;33;44440;-77
2021/05/31 06:02:45;;;;;;;;;;;16.60;68.30;;;;;;4289358;33;20015;-77
2021/05/31 06:05:13;;;;;;;;;;;16.60;68.50;;;;;;4288808;33;23195;-76
2021/05/31 06:07:40;;;;;;;;;;;16.60;68.60;;;;;;4276155;33;20017;-76
2021/05/31 06:10:11;;;;;;;;;;;16.60;68.60;;;;;;4275712;33;44830;-77
2021/05/31 06:12:38;;;;;;;;;;;16.70;68.70;;;;;;4275244;33;45083;-77
2021/05/31 06:15:06;;;;;;;;;;;16.70;68.80;;;;;;4274825;33;43361;-76
2021/05/31 06:17:33;;;;;;;;;;;16.70;68.90;;;;;;4288483;33;20026;-76
2021/05/31 06:20:06;;;;;;;;;;;16.70;68.90;;;;;;4263781;33;20381;-76
2021/05/31 06:22:43;;;;;;;;;;;16.70;68.90;;;;;;4274428;33;46511;-76
2021/05/31 06:25:13;;;;;;;;;;;16.70;68.90;;;;;;4275117;33;41866;-77
2021/05/31 06:27:46;;;;;;;;;;;16.80;69.00;;;;;;4264752;33;20412;-76
2021/05/31 06:30:14;;;;;;;;;;;16.80;69.00;;;;;;4274674;33;44176;-76
2021/05/31 06:32:41;;;;;;;;;;;16.80;69.00;;;;;;4274518;33;44538;-77
2021/05/31 06:35:11;;;;;;;;;;;16.80;69.00;;;;;;4262994;33;43667;-77
2021/05/31 06:37:41;;;;;;;;;;;16.80;69.00;;;;;;4288176;33;20018;-76
2021/05/31 06:40:11;;;;;;;;;;;16.90;69.10;;;;;;4288211;33;29374;-76
2021/05/31 06:42:39;;;;;;;;;;;16.90;69.20;;;;;;4274349;33;43789;-77
2021/05/31 06:45:14;;;;;;;;;;;16.90;69.20;;;;;;4288453;33;20022;-76
2021/05/31 06:47:43;;;;;;;;;;;16.90;69.30;;;;;;4274786;33;27842;-76
2021/05/31 06:50:11;;;;;;;;;;;16.90;69.30;;;;;;4287686;33;43995;-77
2021/05/31 06:52:43;;;;;;;;;;;16.90;69.30;;;;;;4288417;33;20002;-76
2021/05/31 06:55:11;;;;;;;;;;;17.00;69.40;;;;;;4275088;33;44119;-76
2021/05/31 06:57:46;;;;;;;;;;;17.00;69.40;;;;;;4275334;33;19995;-77
2021/05/31 07:00:14;;;;;;;;;;;17.00;69.40;;;;;;4287566;33;42080;-76
2021/05/31 07:02:41;;;;;;;;;;;17.00;69.40;;;;;;4287352;33;37803;-76
2021/05/31 07:05:11;;;;;;;;;;;17.00;69.40;;;;;;4287644;33;34601;-76
2021/05/31 07:07:39;;;;;;;;;;;17.00;69.50;;;;;;4274819;33;44347;-77
2021/05/31 07:10:06;;;;;;;;;;;17.00;69.40;;;;;;4286964;33;44059;-76
2021/05/31 07:12:37;;;;;;;;;;;17.10;69.50;;;;;;4275092;33;20002;-76
2021/05/31 07:15:12;;;;;;;;;;;17.00;69.40;;;;;;4288522;33;20003;-76
2021/05/31 07:17:42;;;;;;;;;;;17.00;69.40;;;;;;4287390;33;43619;-76
2021/05/31 07:20:14;;;;;;;;;;;17.10;69.50;;;;;;4287723;33;38396;-76
2021/05/31 07:22:43;;;;;;;;;;;17.10;69.50;;;;;;4273805;33;42201;-76
2021/05/31 07:25:14;;;;;;;;;;;17.10;69.50;;;;;;4275819;33;20396;-76
2021/05/31 07:27:44;;;;;;;;;;;17.10;69.40;;;;;;4288348;33;20116;-76
2021/05/31 07:30:13;;;;;;;;;;;17.10;69.40;;;;;;4275142;33;20010;-76
2021/05/31 07:32:51;;;;;;;;;;;17.10;69.20;;;;;;4275303;33;20002;-76
2021/05/31 07:35:18;;;;;;;;;;;17.10;69.20;;;;;;4288500;33;20022;-76
2021/05/31 07:37:45;;;;;;;;;;;17.10;69.20;;;;;;4286998;33;43111;-76
2021/05/31 07:40:14;;;;;;;;;;;17.20;69.30;;;;;;4273784;33;38793;-76
2021/05/31 07:42:44;;;;;;;;;;;17.10;69.20;;;;;;4262262;33;45939;-76
2021/05/31 07:45:12;;;;;;;;;;;17.20;69.30;;;;;;4274980;33;20070;-76
2021/05/31 07:47:42;;;;;;;;;;;17.20;69.20;;;;;;4287206;33;31083;-76
2021/05/31 07:50:14;;;;;;;;;;;17.20;69.00;;;;;;4275529;33;20011;-76
2021/05/31 07:52:44;;;;;;;;;;;17.20;69.00;;;;;;4261887;33;45057;-76
2021/05/31 07:55:12;;;;;;;;;;;17.20;69.80;;;;;;4287933;33;20079;-77
2021/05/31 07:57:40;;;;;;;;;;;17.20;69.00;;;;;;4287800;33;20053;-76
2021/05/31 08:00:14;;;;;;;;;;;17.20;68.80;;;;;;4263602;33;20016;-77
2021/05/31 08:02:43;;;;;;;;;;;17.20;68.80;;;;;;4286663;33;43558;-76
2021/05/31 08:05:14;;;;;;;;;;;17.20;68.60;;;;;;4287611;33;20065;-76
2021/05/31 08:07:45;;;;;;;;;;;17.20;68.60;;;;;;4286999;33;44652;-76
2021/05/31 08:10:13;;;;;;;;;;;17.20;68.70;;;;;;4262799;33;20029;-77
2021/05/31 08:12:48;;;;;;;;;;;17.20;68.70;;;;;;4273800;33;45259;-76
2021/05/31 08:15:15;;;;;;;;;;;17.20;68.80;;;;;;4286753;33;44568;-76
2021/05/31 08:17:45;;;;;;;;;;;17.20;68.80;;;;;;4287478;33;20017;-76
2021/05/31 08:20:16;;;;;;;;;;;17.30;69.00;;;;;;4286770;33;44662;-77
2021/05/31 08:22:45;;;;;;;;;;;17.30;68.90;;;;;;4286898;33;43653;-76
2021/05/31 08:25:13;;;;;;;;;;;17.30;68.90;;;;;;4286494;33;44716;-76
2021/05/31 08:27:42;;;;;;;;;;;17.30;68.80;;;;;;4287108;33;44334;-76
2021/05/31 08:30:14;;;;;;;;;;;17.30;68.80;;;;;;4262013;33;43374;-76
2021/05/31 08:32:41;;;;;;;;;;;17.30;68.80;;;;;;4286791;33;44330;-76
2021/05/31 08:35:11;;;;;;;;;;;17.30;68.70;;;;;;4287877;33;20073;-76
2021/05/31 08:37:40;;;;;;;;;;;17.30;68.70;;;;;;4287567;33;19999;-76
2021/05/31 08:40:10;;;;;;;;;;;17.40;68.70;;;;;;4273470;33;44986;-76
2021/05/31 08:42:41;;;;;;;;;;;17.40;68.70;;;;;;4286828;33;44620;-76
2021/05/31 08:45:12;;;;;;;;;;;17.40;68.70;;;;;;4276063;33;43264;-76
2021/05/31 08:47:43;;;;;;;;;;;17.40;68.60;;;;;;4290644;33;20434;-76
2021/05/31 08:50:17;;;;;;;;;;;17.40;68.60;;;;;;4277266;33;20439;-76
2021/05/31 08:52:48;;;;;;;;;;;17.40;68.60;;;;;;4288816;33;43221;-76
2021/05/31 08:55:18;;;;;;;;;;;17.40;68.70;;;;;;4264816;33;27525;-76
2021/05/31 08:57:46;;;;;;;;;;;17.40;69.40;;;;;;4289160;33;44066;-76
2021/05/31 09:00:19;;;;;;;;;;;17.50;68.60;;;;;;4288695;33;43791;-76
2021/05/31 09:02:49;;;;;;;;;;;17.50;68.70;;;;;;4277438;33;20332;-76
2021/05/31 09:05:27;;;;;;;;;;;17.50;68.60;;;;;;4276826;33;20014;-76
2021/05/31 09:08:00;;;;;;;;;;;17.50;68.60;;;;;;4290186;33;20014;-76
2021/05/31 09:10:32;;;;;;;;;;;17.50;68.60;;;;;;4265328;33;19991;-77
2021/05/31 09:13:05;;;;;;;;;;;17.50;68.60;;;;;;4290168;33;20006;-76
2021/05/31 09:15:36;;;;;;;;;;;17.50;68.60;;;;;;4290421;33;20404;-76
2021/05/31 09:18:06;;;;;;;;;;;17.60;68.50;;;;;;4277227;33;20015;-76
2021/05/31 09:20:33;;;;;;;;;;;17.60;68.50;;;;;;4276418;33;26032;-75
2021/05/31 09:23:03;;;;;;;;;;;17.60;68.40;;;;;;4276679;33;20010;-76
2021/05/31 09:25:33;;;;;;;;;;;17.60;68.50;;;;;;4289899;33;20057;-77
2021/05/31 09:28:08;;;;;;;;;;;17.60;68.50;;;;;;4289459;33;20014;-77
2021/05/31 09:30:44;;;;;;;;;;;17.60;68.50;;;;;;4289616;33;20022;-77
2021/05/31 09:33:12;;;;;;;;;;;17.60;68.50;;;;;;4288745;33;42390;-77
2021/05/31 09:35:42;;;;;;;;;;;17.70;68.60;;;;;;4264064;33;28955;-76
2021/05/31 09:38:18;;;;;;;;;;;17.70;68.50;;;;;;4276571;33;20018;-76
2021/05/31 09:40:54;;;;;;;;;;;17.70;68.50;;;;;;4263784;33;44525;-76
2021/05/31 09:43:24;;;;;;;;;;;17.80;68.50;;;;;;4288205;33;42684;-76
2021/05/31 09:45:53;;;;;;;;;;;17.70;68.30;;;;;;4288895;33;31172;-77
2021/05/31 09:48:33;;;;;;;;;;;17.80;68.20;;;;;;4289652;33;20025;-77
2021/05/31 09:51:01;;;;;;;;;;;17.80;68.20;;;;;;4275797;33;44623;-77
2021/05/31 09:53:35;;;;;;;;;;;17.80;68.10;;;;;;4287915;33;44569;-77
2021/05/31 09:56:20;;;;;;;;;;;17.80;68.10;;;;;;4288385;33;24484;-76
2021/05/31 09:58:58;;;;;;;;;;;17.90;68.10;;;;;;4275538;33;44101;-76
2021/05/31 10:01:40;;;;;;;;;;;17.90;68.10;;;;;;4288728;33;44323;-76
2021/05/31 10:06:49;;;;;;;;;;;17.90;68.00;;;;;;4275131;33;43453;-76
2021/05/31 10:09:16;;;;;;;;;;;18.00;67.90;;;;;;4263103;33;44334;-76
2021/05/31 10:11:45;;;;;;;;;;;18.00;67.90;;;;;;4274857;33;43158;-77
2021/05/31 10:14:15;;;;;;;;;;;18.00;67.90;;;;;;4288368;33;36511;-77
2021/05/31 10:16:46;;;;;;;;;;;18.00;67.80;;;;;;4276648;33;20013;-77
2021/05/31 10:19:13;;;;;;;;;;;18.00;67.80;;;;;;4288249;33;44201;-77
2021/05/31 10:21:43;;;;;;;;;;;18.00;67.70;;;;;;4275762;33;20442;-77
2021/05/31 10:24:12;;;;;;;;;;;18.00;67.60;;;;;;4288841;33;20002;-76
2021/05/31 10:26:44;;;;;;;;;;;18.00;67.50;;;;;;4276094;33;20022;-77
2021/05/31 10:29:11;;;;;;;;;;;18.10;67.50;;;;;;4288104;33;44497;-77
2021/05/31 10:31:47;;;;;;;;;;;18.10;67.40;;;;;;4287426;33;44324;-77
2021/05/31 10:34:21;;;;;;;;;;;18.10;67.30;;;;;;4288065;33;43709;-77
2021/05/31 10:36:50;;;;;;;;;;;18.20;67.30;;;;;;4287569;33;42486;-77
2021/05/31 10:39:24;;;;;;;;;;;18.10;67.10;;;;;;4274224;33;43277;-77
2021/05/31 10:42:07;;;;;;;;;;;18.20;67.10;;;;;;4288704;33;20101;-77
2021/05/31 10:44:35;;;;;;;;;;;18.20;67.10;;;;;;4274179;33;44966;-77
2021/05/31 10:47:10;;;;;;;;;;;18.20;67.00;;;;;;4288776;33;20424;-77
2021/05/31 10:49:39;;;;;;;;;;;18.30;67.00;;;;;;4275608;33;20080;-77
2021/05/31 10:52:20;;;;;;;;;;;18.30;66.90;;;;;;4275513;33;20031;-77
2021/05/31 10:54:50;;;;;;;;;;;18.30;66.70;;;;;;4274718;33;44644;-76
2021/05/31 10:57:22;;;;;;;;;;;18.30;66.70;;;;;;4289108;33;20076;-76
2021/05/31 10:59:49;;;;;;;;;;;18.30;66.70;;;;;;4287911;33;43296;-77
2021/05/31 11:02:20;;;;;;;;;;;18.30;66.70;;;;;;4288122;33;20022;-77
2021/05/31 11:04:50;;;;;;;;;;;18.40;66.70;;;;;;4288132;33;20058;-77
2021/05/31 11:07:27;;;;;;;;;;;18.40;66.60;;;;;;4274342;33;44614;-77
2021/05/31 11:09:57;;;;;;;;;;;18.40;66.50;;;;;;4288538;33;20088;-77
2021/05/31 11:12:33;;;;;;;;;;;18.40;67.30;;;;;;4263273;33;20016;-77
2021/05/31 11:15:07;;;;;;;;;;;18.50;66.50;;;;;;4287673;33;44226;-77
2021/05/31 11:17:56;;;;;;;;;;;18.50;66.40;;;;;;4288666;33;20010;-77
2021/05/31 11:20:27;;;;;;;;;;;18.50;66.40;;;;;;4273717;33;47230;-76
2021/05/31 11:23:04;;;;;;;;;;;18.50;66.40;;;;;;4287039;33;42331;-77
2021/05/31 11:25:32;;;;;;;;;;;18.60;66.40;;;;;;4287229;33;43560;-77
2021/05/31 11:28:01;;;;;;;;;;;18.60;67.00;;;;;;4273718;33;43623;-77
2021/05/31 11:30:32;;;;;;;;;;;18.60;66.30;;;;;;4288039;33;20017;-77
2021/05/31 11:33:03;;;;;;;;;;;18.60;66.30;;;;;;4287669;33;44003;-77
2021/05/31 11:35:34;;;;;;;;;;;18.60;66.30;;;;;;4287563;33;44250;-76
2021/05/31 11:38:04;;;;;;;;;;;18.70;66.30;;;;;;4273759;33;45628;-78
2021/05/31 11:40:36;;;;;;;;;;;18.70;66.30;;;;;;4286713;33;44476;-76
2021/05/31 11:43:07;;;;;;;;;;;18.70;66.20;;;;;;4275357;33;20062;-77
2021/05/31 11:45:37;;;;;;;;;;;18.70;66.20;;;;;;4287068;33;43531;-76
2021/05/31 11:48:15;;;;;;;;;;;18.70;66.20;;;;;;4287411;33;40497;-78
2021/05/31 11:50:43;;;;;;;;;;;18.80;66.10;;;;;;4287147;33;44663;-77
2021/05/31 11:53:12;;;;;;;;;;;18.80;66.00;;;;;;4287237;33;44324;-77
2021/05/31 11:55:42;;;;;;;;;;;18.80;66.00;;;;;;4274199;33;27350;-77
2021/05/31 11:58:11;;;;;;;;;;;18.80;65.80;;;;;;4287290;33;44189;-77
2021/05/31 12:00:44;;;;;;;;;;;18.90;65.90;;;;;;4286543;33;43269;-77
2021/05/31 12:03:21;;;;;;;;;;;18.90;65.70;;;;;;4261844;33;43510;-78
2021/05/31 12:05:52;;;;;;;;;;;18.90;65.70;;;;;;4273695;33;44776;-78
2021/05/31 12:08:22;;;;;;;;;;;18.90;65.60;;;;;;4273444;33;44764;-77
2021/05/31 12:10:52;;;;;;;;;;;18.90;65.60;;;;;;4286934;33;44596;-77
2021/05/31 12:13:27;;;;;;;;;;;19.00;65.60;;;;;;4274302;33;37834;-77
2021/05/31 12:16:00;;;;;;;;;;;19.00;65.70;;;;;;4263248;33;19999;-77
2021/05/31 12:18:32;;;;;;;;;;;19.00;65.60;;;;;;4275922;33;20392;-77
2021/05/31 12:21:03;;;;;;;;;;;19.00;65.50;;;;;;4277483;33;20013;-77
2021/05/31 12:23:33;;;;;;;;;;;19.00;65.50;;;;;;4290034;33;43289;-77
2021/05/31 12:26:05;;;;;;;;;;;19.10;65.50;;;;;;4277134;33;20009;-77
2021/05/31 12:28:33;;;;;;;;;;;19.10;65.50;;;;;;4290292;33;22793;-78
2021/05/31 12:31:06;;;;;;;;;;;19.20;65.60;;;;;;4289568;33;44180;-78
2021/05/31 12:33:36;;;;;;;;;;;19.20;65.50;;;;;;4276622;33;43519;-78
2021/05/31 12:36:06;;;;;;;;;;;19.20;65.40;;;;;;4276078;33;43179;-77
2021/05/31 12:38:38;;;;;;;;;;;19.30;65.40;;;;;;4276710;33;44721;-77
2021/05/31 12:41:22;;;;;;;;;;;19.20;65.20;;;;;;4276354;33;44971;-78
2021/05/31 12:43:49;;;;;;;;;;;19.30;65.30;;;;;;4288904;33;43681;-77
2021/05/31 12:46:17;;;;;;;;;;;19.30;65.30;;;;;;4288957;33;44602;-77
2021/05/31 12:48:52;;;;;;;;;;;19.30;65.20;;;;;;4289373;33;26196;-77
2021/05/31 12:51:25;;;;;;;;;;;19.40;65.20;;;;;;4289292;33;43681;-77
2021/05/31 12:53:58;;;;;;;;;;;19.40;65.20;;;;;;4289352;33;44030;-77
2021/05/31 12:56:28;;;;;;;;;;;19.40;65.20;;;;;;4276667;33;33407;-77
2021/05/31 12:59:05;;;;;;;;;;;19.50;65.10;;;;;;4276075;33;44699;-78
2021/05/31 13:01:32;;;;;;;;;;;19.50;65.00;;;;;;4288963;33;42636;-78
2021/05/31 13:04:02;;;;;;;;;;;19.50;65.00;;;;;;4288930;33;43674;-78
2021/05/31 13:06:39;;;;;;;;;;;19.60;65.10;;;;;;4288960;33;44289;-78
2021/05/31 13:09:20;;;;;;;;;;;19.60;65.00;;;;;;4290094;33;20345;-78
2021/05/31 13:11:53;;;;;;;;;;;19.60;64.90;;;;;;4277517;33;20014;-78
2021/05/31 13:14:22;;;;;;;;;;;19.70;64.80;;;;;;4289047;33;44691;-78
2021/05/31 13:16:58;;;;;;;;;;;19.70;64.90;;;;;;4289700;33;20011;-78
2021/05/31 13:19:26;;;;;;;;;;;19.70;64.80;;;;;;4275398;33;45110;-79
2021/05/31 13:21:59;;;;;;;;;;;19.80;65.00;;;;;;4289469;33;20014;-78
2021/05/31 13:24:28;;;;;;;;;;;19.80;64.80;;;;;;4289654;33;20020;-78
2021/05/31 13:26:55;;;;;;;;;;;19.80;64.80;;;;;;4288595;33;43360;-78
2021/05/31 13:29:24;;;;;;;;;;;19.80;64.90;;;;;;4292461;33;20085;-78
2021/05/31 13:31:51;;;;;;;;;;;19.80;64.80;;;;;;4290051;33;21190;-77
2021/05/31 13:34:19;;;;;;;;;;;19.90;64.70;;;;;;4278489;33;20006;-78
2021/05/31 13:36:51;;;;;;;;;;;19.90;64.50;;;;;;4304321;33;20024;-77
2021/05/31 13:39:49;;;;;;;;;;;19.90;64.50;;;;;;4274699;33;20035;-79
2021/05/31 13:43:00;;;;;;;;;;;20.00;64.20;;;;;;4280882;33;20006;-78
2021/05/31 13:45:39;;;;;;;;;;;20.00;64.30;;;;;;4278324;33;20048;-78
2021/05/31 13:48:50;;;;;;;;;;;20.10;64.40;;;;;;4240494;33;20539;-78
2021/05/31 13:55:14;;;;;;;;;;;20.10;64.10;;;;;;4304535;33;20078;-78
2021/05/31 13:57:49;;;;;;;;;;;20.20;64.10;;;;;;4279139;33;28405;-80
2021/05/31 14:00:18;;;;;;;;;;;20.20;64.00;;;;;;4289359;33;43363;-79
2021/05/31 14:02:47;;;;;;;;;;;20.20;64.10;;;;;;4302417;33;44313;-80
2021/05/31 14:05:17;;;;;;;;;;;20.30;63.90;;;;;;4302216;33;44169;-80
2021/05/31 14:07:54;;;;;;;;;;;20.30;63.80;;;;;;4290755;33;20362;-80
2021/05/31 14:10:21;;;;;;;;;;;20.30;63.70;;;;;;4277397;33;44702;-80
2021/05/31 14:12:51;;;;;;;;;;;20.40;63.60;;;;;;4277264;33;37560;-80
2021/05/31 14:15:19;;;;;;;;;;;20.40;63.40;;;;;;4303384;33;20002;-80
2021/05/31 14:17:49;;;;;;;;;;;20.40;63.30;;;;;;4289123;33;46551;-80
2021/05/31 14:20:22;;;;;;;;;;;20.50;63.40;;;;;;4289170;33;43649;-80
2021/05/31 14:22:54;;;;;;;;;;;20.50;63.20;;;;;;4289136;33;43713;-80
2021/05/31 14:25:22;;;;;;;;;;;20.50;63.30;;;;;;4289706;33;36250;-79
2021/05/31 14:27:53;;;;;;;;;;;20.50;63.30;;;;;;4289025;33;47064;-79
2021/05/31 14:30:24;;;;;;;;;;;20.60;63.20;;;;;;4278615;33;20021;-80
2021/05/31 14:33:03;;;;;;;;;;;20.60;62.90;;;;;;4303799;33;20016;-80
2021/05/31 14:35:31;;;;;;;;;;;20.70;62.80;;;;;;4289705;33;39873;-79
2021/05/31 14:37:59;;;;;;;;;;;20.70;62.70;;;;;;4289060;33;37173;-79
2021/05/31 14:40:27;;;;;;;;;;;20.70;62.50;;;;;;4289341;33;44363;-79
2021/05/31 14:42:57;;;;;;;;;;;20.70;62.80;;;;;;4289069;33;36630;-80
2021/05/31 14:45:24;;;;;;;;;;;20.80;62.50;;;;;;4289174;33;43645;-79
2021/05/31 14:47:51;;;;;;;;;;;20.80;62.30;;;;;;4302072;33;44612;-80
2021/05/31 14:50:20;;;;;;;;;;;20.80;62.20;;;;;;4288950;33;34691;-79
2021/05/31 14:52:50;;;;;;;;;;;20.80;62.50;;;;;;4288974;33;44060;-79
2021/05/31 14:55:18;;;;;;;;;;;20.90;62.40;;;;;;4289089;33;42090;-79